Change the Weather History Date:

Wednesday, January 15, 2014

  Actual Average Record
Temperature  
Mean Temperature 24 °F -  
Max Temperature 32 °F 28 °F 63 °F (1949)
Min Temperature 17 °F 13 °F -24 °F (1927)
Degree Days  
Heating Degree Days 40    
Moisture  
Dew Point 14 °F    
Average Humidity 77    
Maximum Humidity 93    
Minimum Humidity 51    
Precipitation  
Precipitation 0.00 in - - ()
Sea Level Pressure  
Sea Level Pressure 30.04 in    
Wind  
Wind Speed 14 mph (West)    
Max Wind Speed 20 mph    
Max Gust Speed 31 mph    
Visibility 9 miles    
Events Snow    
Averages and records for this station are not official NWS values.
T = Trace of Precipitation, MM = Missing Value Source: NWS Daily Summary

Daily Weather History Graph

Daily Weather History Graph

Search for Another Location

Airport or City:

Trip Planner

Search our weather history database for the weather conditions in past years. The results will help you decide how hot, cold, wet, or windy it might be!

Date:

Astronomy

Jan. 15, 2014 Rise Set
Actual Time 7:16 AM CST 4:51 PM CST
Civil Twilight 6:46 AM CST 5:21 PM CST
Nautical Twilight 6:12 AM CST 5:55 PM CST
Astronomical Twilight 5:39 AM CST 6:28 PM CST
Moon 4:49 PM CST (1/15) 6:32 AM CST (1/15)
Length of Visible Light 10h 34m
Length of Day
9h 34m
Full, 100% of the Moon is Illuminated
Jan 15
Full
Jan 15
Full
Jan 23
Last Quarter
Jan 30
New
Feb 6
First Quarter

Hourly Weather History & Observations

Time (CST) Temp. Windchill Dew Point Humidity Pressure Visibility Wind Dir Wind Speed Gust Speed Precip Events Conditions
12:15 AM 24.8 °F 11.1 °F 17.6 °F 74% 29.96 in 10.0 mi NW 18.4 mph 31.1 mph N/A Snow Light Snow
12:35 AM 23.0 °F 8.3 °F 17.6 °F 80% 29.96 in 10.0 mi WNW 19.6 mph 31.1 mph N/A Snow Light Snow
12:55 AM 23.0 °F 8.7 °F 17.6 °F 80% 29.97 in 10.0 mi WNW 18.4 mph 23.0 mph N/A Snow Light Snow
1:15 AM 23.0 °F 8.7 °F 17.6 °F 80% 29.97 in 7.0 mi West 18.4 mph - N/A Snow Light Snow
1:35 AM 23.0 °F 9.2 °F 19.4 °F 86% 29.98 in 7.0 mi West 17.3 mph 23.0 mph N/A Snow Light Snow
1:55 AM 23.0 °F 9.6 °F 19.4 °F 86% 29.99 in 10.0 mi WNW 16.1 mph - N/A Snow Light Snow
2:15 AM 21.2 °F 6.8 °F 19.4 °F 93% 30.00 in 10.0 mi WNW 17.3 mph - N/A Snow Light Snow
2:35 AM 21.2 °F 7.3 °F 17.6 °F 86% 30.00 in 7.0 mi WNW 16.1 mph - N/A Snow Light Snow
2:55 AM 21.2 °F 6.8 °F 17.6 °F 86% 30.00 in 10.0 mi WNW 17.3 mph 21.9 mph N/A Snow Light Snow
3:15 AM 21.2 °F 6.0 °F 17.6 °F 86% 30.01 in 7.0 mi WNW 19.6 mph 24.2 mph N/A Snow Light Snow
3:35 AM 21.2 °F 6.8 °F 17.6 °F 86% 30.02 in 7.0 mi WNW 17.3 mph - N/A Snow Light Snow
3:55 AM 21.2 °F 6.0 °F 17.6 °F 86% 30.02 in 7.0 mi WNW 19.6 mph - N/A Snow Light Snow
4:15 AM 21.2 °F 6.8 °F 17.6 °F 86% 30.03 in 7.0 mi WNW 17.3 mph - N/A Snow Light Snow
4:35 AM 21.2 °F 7.3 °F 15.8 °F 80% 30.03 in 5.0 mi WNW 16.1 mph - N/A Snow Light Snow
4:55 AM 21.2 °F 8.3 °F 17.6 °F 86% 30.03 in 4.0 mi WNW 13.8 mph - N/A Snow Light Snow
5:15 AM 19.4 °F 6.0 °F 15.8 °F 86% 30.04 in 3.0 mi WNW 13.8 mph - N/A Snow Light Snow
5:35 AM 32.0 °F 22.5 °F 15.8 °F 51% 30.05 in 7.0 mi WNW 12.7 mph - N/A Snow Light Snow
5:55 AM 19.4 °F 6.6 °F 14.0 °F 80% 30.05 in 10.0 mi NW 12.7 mph - N/A Snow Light Snow
6:15 AM 19.4 °F 7.2 °F 12.2 °F 74% 30.06 in 10.0 mi NW 11.5 mph - N/A   Overcast
6:35 AM 19.4 °F 7.9 °F 14.0 °F 80% 30.06 in 10.0 mi NW 10.4 mph - N/A Snow Light Snow
6:55 AM 19.4 °F 6.6 °F 12.2 °F 74% 30.07 in 10.0 mi NW 12.7 mph - N/A Snow Light Snow
7:15 AM 19.4 °F 7.2 °F 12.2 °F 74% 30.08 in 10.0 mi NW 11.5 mph - N/A   Overcast
7:35 AM 19.4 °F 5.5 °F 10.4 °F 68% 30.09 in 10.0 mi NW 15.0 mph - N/A   Overcast
7:55 AM 19.4 °F 7.2 °F 12.2 °F 74% 30.09 in 10.0 mi WNW 11.5 mph - N/A Snow Light Snow
8:15 AM 17.6 °F 4.3 °F 12.2 °F 79% 30.10 in 10.0 mi WNW 12.7 mph - N/A Snow Light Snow
8:35 AM 17.6 °F 4.3 °F 12.2 °F 79% 30.11 in 10.0 mi WNW 12.7 mph - N/A   Scattered Clouds
8:55 AM 17.6 °F 5.0 °F 12.2 °F 79% 30.12 in 10.0 mi WNW 11.5 mph - N/A   Clear
9:15 AM 17.6 °F 4.3 °F 12.2 °F 79% 30.12 in 10.0 mi NW 12.7 mph - N/A   Clear
9:35 AM 19.4 °F 6.0 °F 12.2 °F 74% 30.12 in 10.0 mi WNW 13.8 mph - N/A   Clear
9:55 AM 19.4 °F 6.6 °F 12.2 °F 74% 30.12 in 10.0 mi WNW 12.7 mph - N/A   Scattered Clouds
10:15 AM 19.4 °F 8.6 °F 12.2 °F 74% 30.11 in 10.0 mi West 9.2 mph - N/A   Scattered Clouds
10:35 AM 19.4 °F 8.6 °F 12.2 °F 74% 30.12 in 10.0 mi West 9.2 mph - N/A   Scattered Clouds
10:55 AM 19.4 °F 7.9 °F 12.2 °F 74% 30.12 in 10.0 mi WNW 10.4 mph - N/A   Mostly Cloudy
11:15 AM 19.4 °F 6.6 °F 12.2 °F 74% 30.12 in 10.0 mi West 12.7 mph - N/A   Overcast
11:35 AM 19.4 °F 6.6 °F 12.2 °F 74% 30.11 in 10.0 mi West 12.7 mph 19.6 mph N/A Snow Light Snow
11:55 AM 19.4 °F 7.9 °F 12.2 °F 74% 30.11 in 7.0 mi West 10.4 mph - N/A Snow Light Snow
12:15 PM 19.4 °F 6.6 °F 12.2 °F 74% 30.10 in 10.0 mi WSW 12.7 mph - N/A Snow Light Snow
12:35 PM 19.4 °F 6.0 °F 12.2 °F 74% 30.09 in 10.0 mi WSW 13.8 mph - N/A Snow Light Snow
12:55 PM 19.4 °F 6.0 °F 12.2 °F 74% 30.09 in 10.0 mi West 13.8 mph - N/A Snow Light Snow
1:15 PM 19.4 °F 5.5 °F 12.2 °F 74% 30.09 in 10.0 mi West 15.0 mph - N/A   Overcast
1:35 PM 21.2 °F 8.3 °F 12.2 °F 68% 30.08 in 10.0 mi WSW 13.8 mph - N/A   Overcast
1:55 PM 21.2 °F 8.9 °F 12.2 °F 68% 30.08 in 10.0 mi West 12.7 mph 16.1 mph N/A   Mostly Cloudy
2:15 PM 21.2 °F 8.9 °F 12.2 °F 68% 30.08 in 10.0 mi West 12.7 mph - N/A   Scattered Clouds
2:35 PM 21.2 °F 10.1 °F 12.2 °F 68% 30.07 in 10.0 mi WNW 10.4 mph - N/A   Scattered Clouds
2:55 PM 21.2 °F 8.3 °F 12.2 °F 68% 30.07 in 10.0 mi WSW 13.8 mph - N/A   Scattered Clouds
3:15 PM 23.0 °F 12.4 °F 12.2 °F 63% 30.07 in 10.0 mi West 10.4 mph - N/A   Scattered Clouds
3:35 PM 23.0 °F 13.1 °F 12.2 °F 63% 30.07 in 10.0 mi WSW 9.2 mph - N/A   Scattered Clouds
3:55 PM 23.0 °F 13.9 °F 12.2 °F 63% 30.07 in 10.0 mi West 8.1 mph - N/A   Clear
4:15 PM 23.0 °F 12.4 °F 12.2 °F 63% 30.07 in 10.0 mi West 10.4 mph - N/A   Scattered Clouds
4:35 PM 23.0 °F 12.4 °F 14.0 °F 68% 30.07 in 10.0 mi West 10.4 mph - N/A   Clear
4:55 PM 21.2 °F 10.9 °F 14.0 °F 74% 30.06 in 10.0 mi WSW 9.2 mph - N/A   Clear
5:15 PM 21.2 °F 12.6 °F 14.0 °F 74% 30.06 in 10.0 mi WSW 6.9 mph - N/A   Clear
5:35 PM 21.2 °F 13.6 °F 14.0 °F 74% 30.06 in 10.0 mi SW 5.8 mph - N/A   Clear
5:55 PM 21.2 °F 13.6 °F 14.0 °F 74% 30.06 in 10.0 mi WSW 5.8 mph - N/A   Clear
6:15 PM 21.2 °F 13.6 °F 14.0 °F 74% 30.06 in 10.0 mi WSW 5.8 mph - N/A   Clear
6:35 PM 21.2 °F 12.6 °F 14.0 °F 74% 30.05 in 10.0 mi SW 6.9 mph - N/A   Clear
6:55 PM 19.4 °F 10.4 °F 14.0 °F 80% 30.04 in 10.0 mi SSW 6.9 mph - N/A   Clear
7:15 PM 19.4 °F 9.5 °F 14.0 °F 80% 30.03 in 10.0 mi SSW 8.1 mph - N/A   Clear
7:35 PM 19.4 °F 10.4 °F 14.0 °F 80% 30.03 in 10.0 mi SSW 6.9 mph - N/A   Clear
7:55 PM 19.4 °F 10.4 °F 14.0 °F 80% 30.02 in 10.0 mi SSW 6.9 mph - N/A   Clear
8:15 PM 19.4 °F 9.5 °F 15.8 °F 86% 30.00 in 10.0 mi South 8.1 mph - N/A   Clear
8:35 PM 19.4 °F 8.6 °F 15.8 °F 86% 29.97 in 10.0 mi South 9.2 mph - N/A   Clear
8:55 PM 19.4 °F 10.4 °F 15.8 °F 86% 29.98 in 10.0 mi South 6.9 mph - N/A   Clear
9:15 PM 19.4 °F 8.6 °F 14.0 °F 80% 29.98 in 10.0 mi SSW 9.2 mph - N/A   Clear
9:35 PM 19.4 °F 8.6 °F 14.0 °F 80% 29.96 in 10.0 mi SSW 9.2 mph - N/A   Scattered Clouds
9:55 PM 21.2 °F 9.5 °F 15.8 °F 80% 29.95 in 10.0 mi SSW 11.5 mph - N/A   Overcast
10:15 PM 21.2 °F 8.9 °F 15.8 °F 80% 29.93 in 10.0 mi South 12.7 mph 17.3 mph N/A   Mostly Cloudy
10:35 PM 21.2 °F 8.9 °F 15.8 °F 80% 29.92 in 10.0 mi SSW 12.7 mph - N/A   Scattered Clouds
10:55 PM 21.2 °F 8.9 °F 15.8 °F 80% 29.92 in 10.0 mi SSW 12.7 mph - N/A   Mostly Cloudy
11:15 PM 23.0 °F 10.6 °F 15.8 °F 74% 29.92 in 10.0 mi South 13.8 mph 17.3 mph N/A   Overcast
11:35 PM 23.0 °F 10.1 °F 15.8 °F 74% 29.89 in 10.0 mi SSW 15.0 mph - N/A   Overcast
11:55 PM 23.0 °F 10.1 °F 15.8 °F 74% 29.88 in 10.0 mi SSW 15.0 mph 18.4 mph N/A   Overcast